createdAt,value
2023-03-29T18:37:46.124Z,41.0538
2023-03-29T18:38:47.948Z,43.5304
2023-03-29T18:39:49.582Z,44.1680
2023-03-29T18:40:51.333Z,42.6963
2023-03-29T18:41:53.020Z,41.3796
2023-03-29T18:42:54.761Z,42.6355
2023-03-29T18:43:56.402Z,42.1145
2023-03-29T18:44:58.162Z,42.9870
2023-03-29T18:45:59.945Z,41.7442
2023-03-29T18:47:01.702Z,41.3871
2023-03-29T18:48:03.352Z,41.7999
2023-03-29T18:49:05.066Z,40.0748
2023-03-29T18:50:06.717Z,39.1770
2023-03-29T18:51:08.522Z,40.5197
2023-03-29T18:52:10.130Z,39.1530
2023-03-29T18:53:11.875Z,37.8574
2023-03-29T18:54:13.590Z,38.5168
2023-03-29T18:55:15.297Z,38.4764
2023-03-29T18:56:17.024Z,37.3443
2023-03-29T18:57:18.840Z,36.7829
2023-03-29T18:58:20.453Z,37.1760
2023-03-29T18:59:22.161Z,35.9752
2023-03-29T19:00:23.867Z,36.2071
2023-03-29T19:01:25.722Z,35.5037
2023-03-29T19:02:27.350Z,36.4927
2023-03-29T19:03:29.212Z,35.0672
2023-03-29T19:18:48.734Z,28.5570
2023-03-29T19:19:50.500Z,31.1346
2023-03-29T19:20:52.205Z,30.6372
2023-03-29T19:21:53.918Z,30.2101
2023-03-29T19:22:55.639Z,30.3574
2023-03-29T19:23:57.386Z,30.4438
2023-03-29T19:24:59.045Z,29.6042
2023-03-29T19:26:00.855Z,29.8414
2023-03-29T19:27:02.532Z,29.8444
2023-03-29T19:28:04.258Z,28.6253
2023-03-29T19:29:05.931Z,28.0003
2023-03-29T19:30:07.676Z,28.4029
2023-03-29T19:31:09.382Z,27.5518
2023-03-29T19:32:11.123Z,26.9317
2023-03-29T19:33:12.857Z,27.4866
2023-03-29T19:34:14.510Z,27.5202
2023-03-29T19:35:16.203Z,27.7292
2023-03-29T19:36:17.979Z,26.9137
2023-03-29T19:37:19.692Z,26.6225
2023-03-29T19:38:21.393Z,25.6683
2023-03-29T19:39:23.173Z,27.0000
2023-03-29T19:40:24.789Z,25.8847
2023-03-29T19:41:26.509Z,25.3798
2023-03-29T19:42:28.235Z,25.1600
2023-03-29T19:43:29.953Z,25.7531
2023-03-29T19:44:31.653Z,26.3873
